createdAt,value
2022-11-15T00:02:00.463Z,0.74
2022-11-15T00:04:28.312Z,0.80
2022-11-15T00:06:56.157Z,0.86
2022-11-15T00:09:23.898Z,0.93
2022-11-15T00:11:52.733Z,1.01
2022-11-15T00:14:20.497Z,1.07
2022-11-15T00:16:48.273Z,1.09
2022-11-15T00:19:16.178Z,1.17
2022-11-15T00:21:43.956Z,1.21
2022-11-15T00:24:26.455Z,1.28
2022-11-15T00:26:54.274Z,1.33
2022-11-15T00:32:07.359Z,1.47
2022-11-15T00:34:35.235Z,1.46
2022-11-15T00:37:03.066Z,1.42
2022-11-15T00:39:30.830Z,1.41
2022-11-15T00:41:58.684Z,1.40
2022-11-15T00:44:26.513Z,1.38
2022-11-15T00:46:54.424Z,1.35
2022-11-15T00:49:22.201Z,1.32
2022-11-15T00:51:49.987Z,1.30
2022-11-15T00:54:17.752Z,1.28
2022-11-15T00:56:45.516Z,1.21
2022-11-15T00:59:13.351Z,1.16
2022-11-15T01:01:41.109Z,1.08
2022-11-15T01:04:08.842Z,1.03
2022-11-15T01:06:36.683Z,1.02
2022-11-15T01:09:04.488Z,0.96
2022-11-15T01:11:32.391Z,0.91
2022-11-15T01:14:00.138Z,0.89
2022-11-15T01:16:27.988Z,0.88
2022-11-15T01:18:55.729Z,0.84
2022-11-15T01:21:23.567Z,0.78
2022-11-15T01:23:55.736Z,0.72
2022-11-15T01:26:24.817Z,0.69
2022-11-15T01:28:52.652Z,0.65
2022-11-15T01:31:22.346Z,0.60
2022-11-15T01:33:50.332Z,0.58
2022-11-15T01:36:24.802Z,0.53
2022-11-15T01:38:57.190Z,0.50
2022-11-15T01:41:28.134Z,0.48
2022-11-15T01:43:58.701Z,0.43
2022-11-15T01:46:33.473Z,0.39
2022-11-15T01:49:05.819Z,0.37
2022-11-15T01:51:34.463Z,0.33
2022-11-15T01:54:11.793Z,0.28
2022-11-15T01:56:47.511Z,0.25
2022-11-15T01:59:15.961Z,0.21
2022-11-15T02:01:44.293Z,0.18
2022-11-15T02:04:19.388Z,0.13
2022-11-15T02:06:49.415Z,0.12
2022-11-15T02:09:18.388Z,0.12
2022-11-15T02:11:48.265Z,0.11
2022-11-15T02:14:19.321Z,0.07
2022-11-15T02:16:59.146Z,0.04
2022-11-15T02:19:32.990Z,0.02
2022-11-15T02:22:06.923Z,0.01
2022-11-15T02:25:06.008Z,0.01
2022-11-15T02:27:58.497Z,0.04
2022-11-15T02:30:54.226Z,0.07
2022-11-15T02:33:35.654Z,0.11
2022-11-15T02:36:11.103Z,0.11
2022-11-15T02:38:47.994Z,0.11
2022-11-15T02:41:31.462Z,0.11
2022-11-15T02:44:09.347Z,0.07
2022-11-15T02:47:05.999Z,0.07
2022-11-15T02:49:36.074Z,0.05
2022-11-15T02:52:03.948Z,0.07
2022-11-15T02:54:34.514Z,0.08
2022-11-15T02:57:17.892Z,0.09
2022-11-15T03:00:04.672Z,0.15
2022-11-15T03:02:48.100Z,0.22
2022-11-15T03:05:38.530Z,0.31
2022-11-15T03:08:18.862Z,0.38
2022-11-15T03:11:11.982Z,0.41
2022-11-15T03:13:46.417Z,0.43
2022-11-15T03:16:24.691Z,0.42
2022-11-15T03:19:01.056Z,0.46
2022-11-15T03:21:31.491Z,0.65
2022-11-15T03:24:04.011Z,0.84
2022-11-15T03:26:35.714Z,1.00
2022-11-15T03:29:14.898Z,1.14
2022-11-15T03:31:51.162Z,1.23
2022-11-15T03:34:30.957Z,1.33
2022-11-15T03:36:59.092Z,1.40
2022-11-15T03:39:27.470Z,1.48
2022-11-15T03:42:11.522Z,1.52
2022-11-15T03:44:53.311Z,1.59
2022-11-15T03:47:35.910Z,1.67
2022-11-15T03:50:09.439Z,1.74
2022-11-15T03:52:38.343Z,1.82
2022-11-15T03:55:09.419Z,1.90
2022-11-15T03:57:37.419Z,2.00
2022-11-15T04:00:06.015Z,2.09
2022-11-15T04:02:33.784Z,2.19
2022-11-15T04:05:01.705Z,2.31
2022-11-15T04:07:29.646Z,2.43
2022-11-15T04:10:03.811Z,2.59
2022-11-15T04:12:33.378Z,2.75
2022-11-15T04:15:16.788Z,2.90
2022-11-15T04:17:50.285Z,3.00
2022-11-15T04:20:40.383Z,3.03
2022-11-15T04:23:30.188Z,3.11
2022-11-15T04:26:01.679Z,3.26
2022-11-15T04:28:30.089Z,3.48
2022-11-15T04:30:57.956Z,3.71
2022-11-15T04:33:25.990Z,3.94
2022-11-15T04:36:12.508Z,4.11
2022-11-15T04:38:40.244Z,4.28
2022-11-15T04:41:07.999Z,4.41
2022-11-15T04:43:35.968Z,4.52
2022-11-15T04:46:04.074Z,4.63
2022-11-15T04:48:31.848Z,4.69
2022-11-15T04:50:59.678Z,4.75
2022-11-15T04:53:27.459Z,4.80
2022-11-15T04:55:55.189Z,4.81
2022-11-15T04:58:23.003Z,4.75
2022-11-15T05:00:50.864Z,4.68
2022-11-15T05:03:37.550Z,4.60
2022-11-15T05:06:06.314Z,4.41
2022-11-15T05:08:34.382Z,4.12
2022-11-15T05:11:02.176Z,3.75
2022-11-15T05:13:30.241Z,3.39
2022-11-15T05:15:58.401Z,3.05
2022-11-15T05:18:26.420Z,2.75
2022-11-15T05:20:54.180Z,2.48
2022-11-15T05:23:22.051Z,2.24
2022-11-15T05:25:49.838Z,2.04
2022-11-15T05:28:17.604Z,1.93
2022-11-15T05:30:45.331Z,2.00
2022-11-15T05:33:13.081Z,2.10
2022-11-15T05:35:43.496Z,2.20
2022-11-15T05:38:11.271Z,2.35
2022-11-15T05:40:39.090Z,2.52
2022-11-15T05:43:07.191Z,2.61
2022-11-15T05:45:36.339Z,2.62
2022-11-15T05:48:08.871Z,2.65
2022-11-15T05:50:43.509Z,2.62
2022-11-15T05:53:15.581Z,2.43
2022-11-15T05:55:43.578Z,2.31
2022-11-15T05:58:11.414Z,2.21
2022-11-15T06:00:39.757Z,2.13
2022-11-15T06:03:07.558Z,2.06
2022-11-15T06:05:35.372Z,1.93
2022-11-15T06:08:03.236Z,1.69
2022-11-15T06:10:31.081Z,1.66
2022-11-15T06:13:04.569Z,1.65
2022-11-15T06:15:34.277Z,1.61
2022-11-15T06:18:02.323Z,1.59
2022-11-15T06:20:31.233Z,1.59
2022-11-15T06:23:04.822Z,1.56
2022-11-15T06:25:32.650Z,1.54
2022-11-15T06:28:00.933Z,1.51
2022-11-15T06:30:28.933Z,1.55
2022-11-15T06:33:01.856Z,1.64
2022-11-15T06:35:30.515Z,1.70
2022-11-15T06:38:06.882Z,1.71
2022-11-15T06:40:36.435Z,1.72
2022-11-15T06:43:05.784Z,1.79
2022-11-15T06:45:33.854Z,1.87
2022-11-15T06:48:01.703Z,2.00
2022-11-15T06:50:29.473Z,2.12
2022-11-15T06:53:03.063Z,2.21
2022-11-15T06:55:31.060Z,2.30
2022-11-15T06:57:58.962Z,2.44
2022-11-15T07:00:26.749Z,2.57
2022-11-15T07:02:54.568Z,2.71
2022-11-15T07:05:22.378Z,2.86
2022-11-15T07:07:54.565Z,2.95
2022-11-15T07:10:25.566Z,3.08
2022-11-15T07:12:54.076Z,3.25
2022-11-15T07:15:24.496Z,3.38
2022-11-15T07:17:52.442Z,3.52
2022-11-15T07:20:20.274Z,3.62
2022-11-15T07:22:48.151Z,3.74
2022-11-15T07:25:16.099Z,3.88
2022-11-15T07:27:43.924Z,4.00
2022-11-15T07:30:15.399Z,4.10
2022-11-15T07:32:43.396Z,4.18
2022-11-15T07:35:11.167Z,4.28
2022-11-15T07:37:38.914Z,4.35
2022-11-15T07:40:07.516Z,4.45
2022-11-15T07:42:53.722Z,4.54
2022-11-15T07:45:27.310Z,4.64
2022-11-15T07:47:56.934Z,4.71
2022-11-15T07:50:25.437Z,4.80
2022-11-15T07:52:58.383Z,4.94
2022-11-15T07:55:28.958Z,5.08
2022-11-15T07:58:04.897Z,5.15
2022-11-15T08:00:33.495Z,5.27
2022-11-15T08:03:12.563Z,5.46
2022-11-15T08:05:42.210Z,5.63
2022-11-15T08:08:13.205Z,5.75
2022-11-15T08:10:41.058Z,5.81
2022-11-15T08:13:12.873Z,5.88
2022-11-15T08:15:40.662Z,5.84
2022-11-15T08:18:13.463Z,5.81
2022-11-15T08:20:42.152Z,5.79
2022-11-15T08:23:12.272Z,5.78
2022-11-15T08:25:40.499Z,5.82
2022-11-15T08:28:11.280Z,5.91
2022-11-15T08:30:43.094Z,6.00
2022-11-15T08:33:15.419Z,6.10
2022-11-15T08:35:44.518Z,6.13
2022-11-15T08:38:12.733Z,6.19
2022-11-15T08:40:40.511Z,6.26
2022-11-15T08:43:08.372Z,6.35
2022-11-15T08:45:36.952Z,6.42
2022-11-15T08:48:05.013Z,6.51
2022-11-15T08:50:32.939Z,6.61
2022-11-15T08:53:09.629Z,6.71
2022-11-15T08:55:39.031Z,6.86
2022-11-15T08:58:07.140Z,7.00
2022-11-15T09:00:35.100Z,7.13
2022-11-15T09:03:06.049Z,7.26
2022-11-15T09:05:36.674Z,7.39
2022-11-15T09:08:19.014Z,7.47
2022-11-15T09:10:52.851Z,7.63
2022-11-15T09:13:20.606Z,7.70
2022-11-15T09:15:48.524Z,7.76
2022-11-15T09:18:16.363Z,7.83
2022-11-15T09:20:44.260Z,7.94
2022-11-15T09:23:12.127Z,8.07
2022-11-15T09:25:39.944Z,8.21
2022-11-15T09:28:09.100Z,8.33
2022-11-15T09:30:36.912Z,8.35
2022-11-15T09:33:12.767Z,8.30
2022-11-15T09:35:42.055Z,8.27
2022-11-15T09:38:09.879Z,8.33
2022-11-15T09:40:39.032Z,8.44
2022-11-15T09:43:28.506Z,8.57
2022-11-15T09:46:47.665Z,8.72
2022-11-15T09:49:17.390Z,8.91
2022-11-15T09:51:48.883Z,9.02
2022-11-15T09:57:50.783Z,9.21
2022-11-15T10:00:47.079Z,9.44
2022-11-15T10:03:19.287Z,9.74
2022-11-15T10:05:49.583Z,10.00
2022-11-15T10:08:17.310Z,10.15
2022-11-15T10:10:50.042Z,10.25
2022-11-15T10:13:26.061Z,10.39
2022-11-15T10:16:00.259Z,10.44
2022-11-15T10:19:01.453Z,10.48
2022-11-15T10:22:08.283Z,10.55
2022-11-15T10:24:42.754Z,10.64
2022-11-15T10:27:17.851Z,10.69
2022-11-15T10:29:48.068Z,10.73
2022-11-15T10:32:17.278Z,10.67
2022-11-15T10:34:45.084Z,10.65
2022-11-15T10:37:12.912Z,10.58
2022-11-15T10:39:40.865Z,10.51
2022-11-15T10:42:29.952Z,10.46
2022-11-15T10:44:57.820Z,10.51
2022-11-15T10:47:38.857Z,10.56
2022-11-15T10:50:33.071Z,10.62
2022-11-15T10:53:03.916Z,10.66
2022-11-15T10:55:34.491Z,10.72
2022-11-15T10:58:21.132Z,10.88
2022-11-15T11:00:49.031Z,10.94
2022-11-15T11:03:30.543Z,11.06
2022-11-15T11:06:16.842Z,11.11
2022-11-15T11:09:22.924Z,11.15
2022-11-15T11:11:52.966Z,11.28
2022-11-15T11:14:28.410Z,11.42
2022-11-15T11:17:14.827Z,11.58
2022-11-15T11:19:51.093Z,11.65
2022-11-15T11:22:21.924Z,11.72
2022-11-15T11:25:31.377Z,11.78
2022-11-15T11:28:18.162Z,11.85
2022-11-15T11:31:09.392Z,11.86
2022-11-15T11:34:02.698Z,11.88
2022-11-15T11:37:01.808Z,11.86
2022-11-15T11:39:54.663Z,11.82
2022-11-15T11:42:38.831Z,11.74
2022-11-15T11:45:52.707Z,11.68
2022-11-15T11:48:29.750Z,11.66
2022-11-15T11:51:13.033Z,11.69
2022-11-15T11:53:47.892Z,11.77
2022-11-15T11:56:24.764Z,11.75
2022-11-15T11:58:55.515Z,11.81
2022-11-15T12:01:38.812Z,11.86
2022-11-15T12:04:29.950Z,11.90
2022-11-15T12:07:21.647Z,11.99
2022-11-15T12:09:55.527Z,12.11
2022-11-15T12:12:50.406Z,12.20
2022-11-15T12:15:23.426Z,12.28
2022-11-15T12:17:51.534Z,12.38
2022-11-15T12:20:22.932Z,12.45
2022-11-15T12:22:53.867Z,12.51
2022-11-15T12:25:26.987Z,12.48
2022-11-15T12:28:05.379Z,12.41
2022-11-15T12:30:53.381Z,12.40
2022-11-15T12:33:41.101Z,12.34
2022-11-15T12:36:30.188Z,12.27
2022-11-15T12:39:06.081Z,12.17
2022-11-15T12:41:39.431Z,12.11
2022-11-15T12:44:34.501Z,12.06
2022-11-15T12:47:02.611Z,11.91
2022-11-15T12:49:30.357Z,11.76
2022-11-15T12:51:58.086Z,11.65
2022-11-15T12:54:25.791Z,11.60
2022-11-15T12:57:08.520Z,11.51
2022-11-15T12:59:56.502Z,11.43
2022-11-15T13:02:40.846Z,11.35
2022-11-15T13:05:14.947Z,11.27
2022-11-15T13:07:43.277Z,11.22
2022-11-15T13:10:11.137Z,11.18
2022-11-15T13:12:45.280Z,11.19
2022-11-15T13:15:13.033Z,11.21
2022-11-15T13:17:43.626Z,11.22
2022-11-15T13:20:17.335Z,11.23
2022-11-15T13:22:52.552Z,11.20
2022-11-15T13:25:44.260Z,11.22
2022-11-15T13:28:15.070Z,11.24
2022-11-15T13:30:56.411Z,11.29
2022-11-15T13:33:35.729Z,11.34
2022-11-15T13:36:25.535Z,11.33
2022-11-15T13:39:31.071Z,11.30
2022-11-15T13:41:59.896Z,11.24
2022-11-15T13:44:30.612Z,11.20
2022-11-15T13:47:15.468Z,11.14
2022-11-15T13:49:43.500Z,11.11
2022-11-15T13:52:15.481Z,11.07
2022-11-15T13:54:45.880Z,11.01
2022-11-15T13:57:42.906Z,10.93
2022-11-15T14:00:27.212Z,10.87
2022-11-15T14:02:57.483Z,10.78
2022-11-15T14:05:26.047Z,10.69
2022-11-15T14:08:22.190Z,10.62
2022-11-15T14:11:06.505Z,10.53
2022-11-15T14:13:35.025Z,10.43
2022-11-15T14:16:22.203Z,10.35
2022-11-15T14:18:52.843Z,10.24
2022-11-15T14:21:21.602Z,10.15
2022-11-15T14:23:50.231Z,10.06
2022-11-15T14:26:28.816Z,9.98
2022-11-15T14:28:56.724Z,9.89
2022-11-15T14:31:24.752Z,9.80
2022-11-15T14:33:52.497Z,9.71
2022-11-15T14:36:21.906Z,9.62
2022-11-15T14:38:49.675Z,9.52
2022-11-15T14:41:23.802Z,9.44
2022-11-15T14:43:52.824Z,9.35
2022-11-15T14:46:20.883Z,9.28
2022-11-15T14:48:48.739Z,9.20
2022-11-15T14:51:20.118Z,9.12
2022-11-15T14:53:48.563Z,9.08
2022-11-15T14:56:17.513Z,9.05
